Time,TemperatureF,DewpointF,PressureIn,WindDirection,WindDirectionDegrees,WindSpeedMPH,WindSpeedGustMPH,Humidity,HourlyPrecipIn,Conditions,Clouds,dailyrainin,SoftwareType,DateUTC
2013-01-10 00:01:00,44.0,28.0,-100.00,ESE,111,4.0,6.0,52,-99.99,,,-99.99,,2013-01-10 08:01:00,
2013-01-10 00:11:00,45.0,27.0,-100.00,SE,129,4.0,7.0,50,-99.99,,,-99.99,,2013-01-10 08:11:00,
2013-01-10 00:22:00,46.0,27.0,-100.00,SE,133,4.0,6.0,48,-99.99,,,-99.99,,2013-01-10 08:22:00,
2013-01-10 00:32:00,44.0,27.0,-100.00,ESE,104,4.0,7.0,50,-99.99,,,-99.99,,2013-01-10 08:32:00,
2013-01-10 00:42:00,45.0,27.0,-100.00,ENE,69,5.0,8.0,50,-99.99,,,-99.99,,2013-01-10 08:42:00,
2013-01-10 00:52:00,44.0,28.0,-100.00,East,89,6.0,10.0,52,-99.99,,,-99.99,,2013-01-10 08:52:00,
2013-01-10 01:02:00,45.0,27.0,-100.00,ESE,102,8.0,10.0,50,-99.99,,,-99.99,,2013-01-10 09:02:00,
2013-01-10 01:12:00,45.0,27.0,-100.00,ESE,109,7.0,8.0,50,-99.99,,,-99.99,,2013-01-10 09:12:00,
2013-01-10 01:22:00,44.0,28.0,-100.00,ESE,106,7.0,10.0,52,-99.99,,,-99.99,,2013-01-10 09:22:00,
2013-01-10 01:32:00,46.0,26.0,-100.00,SE,129,7.0,10.0,46,-99.99,,,-99.99,,2013-01-10 09:32:00,
2013-01-10 01:42:00,47.0,25.0,-100.00,SE,146,6.0,11.0,41,-99.99,,,-99.99,,2013-01-10 09:42:00,
2013-01-10 01:52:00,49.0,22.0,-100.00,SSE,164,8.0,12.0,34,-99.99,,,-99.99,,2013-01-10 09:52:00,
2013-01-10 02:02:00,49.0,22.0,-100.00,South,181,8.0,13.0,34,-99.99,,,-99.99,,2013-01-10 10:02:00,
2013-01-10 02:11:00,48.0,23.0,-100.00,SW,216,6.0,11.0,37,-99.99,,,-99.99,,2013-01-10 10:11:00,
2013-01-10 02:22:00,47.0,26.0,-100.00,SW,216,5.0,9.0,43,-99.99,,,-99.99,,2013-01-10 10:22:00,
2013-01-10 02:32:00,44.0,27.0,-100.00,WNW,295,5.0,9.0,50,-99.99,,,-99.99,,2013-01-10 10:32:00,
2013-01-10 02:42:00,40.0,31.0,-100.00,West,272,3.0,8.0,69,-99.99,,,-99.99,,2013-01-10 10:42:00,
2013-01-10 02:52:00,40.0,30.0,-100.00,WSW,255,2.0,4.0,68,-99.99,,,-99.99,,2013-01-10 10:52:00,
2013-01-10 03:02:00,40.0,33.0,-100.00,NW,311,5.0,7.0,75,-99.99,,,-99.99,,2013-01-10 11:02:00,
2013-01-10 03:12:00,37.0,35.0,-100.00,West,274,6.0,10.0,91,-99.99,,,-99.99,,2013-01-10 11:12:00,
2013-01-10 03:22:00,36.0,35.0,-100.00,WSW,255,4.0,7.0,96,-99.99,,,-99.99,,2013-01-10 11:22:00,
2013-01-10 03:32:00,37.0,36.0,-100.00,West,279,3.0,4.0,97,-99.99,,,-99.99,,2013-01-10 11:32:00,
2013-01-10 03:42:00,37.0,36.0,-100.00,NNW,336,1.0,3.0,98,-99.99,,,-99.99,,2013-01-10 11:42:00,
2013-01-10 03:52:00,37.0,36.0,-100.00,East,97,3.0,5.0,98,-99.99,,,-99.99,,2013-01-10 11:52:00,
2013-01-10 04:02:00,36.0,35.0,-100.00,ESE,102,5.0,8.0,98,-99.99,,,-99.99,,2013-01-10 12:02:00,
2013-01-10 04:12:00,37.0,36.0,-100.00,East,91,3.0,5.0,98,-99.99,,,-99.99,,2013-01-10 12:12:00,
2013-01-10 04:22:00,38.0,37.0,-100.00,ESE,109,4.0,6.0,98,-99.99,,,-99.99,,2013-01-10 12:22:00,
2013-01-10 04:32:00,38.0,37.0,-100.00,SSW,201,2.0,5.0,98,-99.99,,,-99.99,,2013-01-10 12:32:00,
2013-01-10 04:42:00,38.0,37.0,-100.00,WNW,285,3.0,7.0,98,-99.99,,,-99.99,,2013-01-10 12:42:00,
2013-01-10 04:52:00,39.0,38.0,-100.00,WSW,254,5.0,12.0,98,-99.99,,,-99.99,,2013-01-10 12:52:00,
2013-01-10 05:02:00,39.0,38.0,-100.00,WSW,246,6.0,13.0,98,-99.99,,,-99.99,,2013-01-10 13:02:00,
2013-01-10 05:11:00,39.0,38.0,-100.00,SW,235,6.0,14.0,97,-99.99,,,-99.99,,2013-01-10 13:11:00,
2013-01-10 05:22:00,39.0,38.0,-100.00,WSW,244,9.0,18.0,95,-99.99,,,-99.99,,2013-01-10 13:22:00,
2013-01-10 05:32:00,39.0,37.0,-100.00,WSW,246,7.0,12.0,94,-99.99,,,-99.99,,2013-01-10 13:32:00,
2013-01-10 05:42:00,39.0,38.0,-100.00,WSW,242,7.0,15.0,95,-99.99,,,-99.99,,2013-01-10 13:42:00,
2013-01-10 05:52:00,39.0,38.0,-100.00,WSW,253,8.0,12.0,97,-99.99,,,-99.99,,2013-01-10 13:52:00,
2013-01-10 06:02:00,39.0,38.0,-100.00,WSW,244,6.0,11.0,97,-99.99,,,-99.99,,2013-01-10 14:02:00,
2013-01-10 06:12:00,39.0,38.0,-100.00,WSW,255,8.0,16.0,98,-99.99,,,-99.99,,2013-01-10 14:12:00,
2013-01-10 06:22:00,39.0,38.0,-100.00,SW,220,9.0,18.0,98,-99.99,,,-99.99,,2013-01-10 14:22:00,
2013-01-10 06:32:00,39.0,38.0,-100.00,WSW,237,10.0,21.0,98,-99.99,,,-99.99,,2013-01-10 14:32:00,
2013-01-10 06:43:00,39.0,38.0,-100.00,WSW,241,10.0,19.0,98,-99.99,,,-99.99,,2013-01-10 14:43:00,
2013-01-10 06:52:00,39.0,38.0,-100.00,WSW,247,12.0,18.0,98,-99.99,,,-99.99,,2013-01-10 14:52:00,
2013-01-10 07:02:00,39.0,38.0,-100.00,WSW,240,9.0,16.0,98,-99.99,,,-99.99,,2013-01-10 15:02:00,
2013-01-10 07:12:00,39.0,38.0,-100.00,WSW,247,8.0,15.0,98,-99.99,,,-99.99,,2013-01-10 15:12:00,
2013-01-10 07:22:00,39.0,38.0,-100.00,WSW,257,9.0,16.0,98,-99.99,,,-99.99,,2013-01-10 15:22:00,
2013-01-10 07:32:00,39.0,38.0,-100.00,WSW,253,9.0,15.0,98,-99.99,,,-99.99,,2013-01-10 15:32:00,
2013-01-10 07:43:00,39.0,38.0,-100.00,WSW,256,8.0,14.0,98,-99.99,,,-99.99,,2013-01-10 15:43:00,
2013-01-10 07:52:00,39.0,38.0,-100.00,West,263,7.0,12.0,98,-99.99,,,-99.99,,2013-01-10 15:52:00,
2013-01-10 08:02:00,39.0,38.0,-100.00,West,261,9.0,17.0,98,-99.99,,,-99.99,,2013-01-10 16:02:00,
2013-01-10 08:12:00,39.0,39.0,-100.00,West,261,10.0,17.0,99,-99.99,,,-99.99,,2013-01-10 16:12:00,
2013-01-10 08:22:00,39.0,39.0,-100.00,WSW,253,11.0,20.0,99,-99.99,,,-99.99,,2013-01-10 16:22:00,
2013-01-10 08:32:00,40.0,40.0,-100.00,WSW,251,14.0,26.0,99,-99.99,,,-99.99,,2013-01-10 16:32:00,
2013-01-10 08:42:00,40.0,40.0,-100.00,WSW,250,14.0,24.0,99,-99.99,,,-99.99,,2013-01-10 16:42:00,
2013-01-10 08:52:00,40.0,40.0,-100.00,West,260,13.0,21.0,99,-99.99,,,-99.99,,2013-01-10 16:52:00,
2013-01-10 09:02:00,40.0,40.0,-100.00,West,265,15.0,30.0,99,-99.99,,,-99.99,,2013-01-10 17:02:00,
2013-01-10 09:12:00,40.0,40.0,-100.00,West,259,15.0,26.0,99,-99.99,,,-99.99,,2013-01-10 17:12:00,
2013-01-10 09:22:00,40.0,40.0,-100.00,WSW,256,16.0,28.0,99,-99.99,,,-99.99,,2013-01-10 17:22:00,
2013-01-10 09:33:00,40.0,40.0,-100.00,WSW,256,17.0,26.0,99,-99.99,,,-99.99,,2013-01-10 17:33:00,
2013-01-10 09:42:00,40.0,40.0,-100.00,West,263,17.0,29.0,99,-99.99,,,-99.99,,2013-01-10 17:42:00,
2013-01-10 09:53:00,37.0,37.0,-100.00,West,260,19.0,28.0,99,-99.99,,,-99.99,,2013-01-10 17:53:00,
2013-01-10 10:03:00,37.0,37.0,-100.00,West,260,19.0,28.0,99,-99.99,,,-99.99,,2013-01-10 18:03:00,
2013-01-10 10:12:00,37.0,37.0,-100.00,West,265,18.0,28.0,99,-99.99,,,-99.99,,2013-01-10 18:12:00,
2013-01-10 10:22:00,37.0,37.0,-100.00,West,269,18.0,30.0,99,-99.99,,,-99.99,,2013-01-10 18:22:00,
2013-01-10 10:32:00,37.0,37.0,-100.00,WSW,254,19.0,33.0,99,-99.99,,,-99.99,,2013-01-10 18:32:00,
2013-01-10 10:43:00,37.0,37.0,-100.00,West,260,18.0,30.0,99,-99.99,,,-99.99,,2013-01-10 18:43:00,
2013-01-10 10:52:00,37.0,37.0,-100.00,West,264,19.0,29.0,99,-99.99,,,-99.99,,2013-01-10 18:52:00,
2013-01-10 11:02:00,36.0,36.0,-100.00,West,265,18.0,29.0,99,-99.99,,,-99.99,,2013-01-10 19:02:00,
2013-01-10 11:12:00,36.0,36.0,-100.00,West,262,17.0,28.0,100,-99.99,,,-99.99,,2013-01-10 19:12:00,
2013-01-10 11:23:00,36.0,36.0,-100.00,West,261,19.0,30.0,100,-99.99,,,-99.99,,2013-01-10 19:23:00,
2013-01-10 11:32:00,36.0,36.0,-100.00,WSW,255,18.0,31.0,100,-99.99,,,-99.99,,2013-01-10 19:32:00,
2013-01-10 11:42:00,35.0,35.0,-100.00,WSW,255,22.0,33.0,100,-99.99,,,-99.99,,2013-01-10 19:42:00,
2013-01-10 11:52:00,35.0,35.0,-100.00,West,261,19.0,35.0,100,-99.99,,,-99.99,,2013-01-10 19:52:00,
2013-01-10 12:02:00,34.0,34.0,-100.00,West,264,20.0,29.0,100,-99.99,,,-99.99,,2013-01-10 20:02:00,
2013-01-10 12:12:00,34.0,34.0,-100.00,WSW,257,19.0,29.0,100,-99.99,,,-99.99,,2013-01-10 20:12:00,
2013-01-10 12:22:00,33.0,33.0,-100.00,WSW,257,20.0,31.0,100,-99.99,,,-99.99,,2013-01-10 20:22:00,
2013-01-10 12:32:00,34.0,34.0,-100.00,WSW,258,18.0,29.0,99,-99.99,,,-99.99,,2013-01-10 20:32:00,
2013-01-10 12:42:00,34.0,33.0,-100.00,West,261,19.0,33.0,97,-99.99,,,-99.99,,2013-01-10 20:42:00,
2013-01-10 12:53:00,35.0,33.0,-100.00,WSW,245,20.0,32.0,94,-99.99,,,-99.99,,2013-01-10 20:53:00,
2013-01-10 13:02:00,35.0,33.0,-100.00,WSW,256,18.0,30.0,93,-99.99,,,-99.99,,2013-01-10 21:02:00,
2013-01-10 13:12:00,35.0,33.0,-100.00,WSW,255,18.0,33.0,92,-99.99,,,-99.99,,2013-01-10 21:12:00,
2013-01-10 13:22:00,34.0,31.0,-100.00,WSW,258,18.0,30.0,88,-99.99,,,-99.99,,2013-01-10 21:22:00,
2013-01-10 13:32:00,34.0,31.0,-100.00,West,262,18.0,30.0,88,-99.99,,,-99.99,,2013-01-10 21:32:00,
2013-01-10 13:42:00,34.0,31.0,-100.00,West,262,18.0,30.0,88,-99.99,,,-99.99,,2013-01-10 21:42:00,
2013-01-10 13:52:00,34.0,31.0,-100.00,WSW,252,21.0,32.0,90,-99.99,,,-99.99,,2013-01-10 21:52:00,
2013-01-10 14:02:00,34.0,31.0,-100.00,WSW,251,22.0,33.0,87,-99.99,,,-99.99,,2013-01-10 22:02:00,
2013-01-10 14:12:00,34.0,31.0,-100.00,WSW,251,19.0,30.0,89,-99.99,,,-99.99,,2013-01-10 22:12:00,
2013-01-10 14:23:00,34.0,31.0,-100.00,WSW,249,22.0,35.0,87,-99.99,,,-99.99,,2013-01-10 22:23:00,
2013-01-10 14:32:00,35.0,30.0,-100.00,WSW,250,23.0,34.0,83,-99.99,,,-99.99,,2013-01-10 22:32:00,
2013-01-10 14:43:00,35.0,30.0,-100.00,WSW,250,23.0,34.0,83,-99.99,,,-99.99,,2013-01-10 22:43:00,
2013-01-10 15:02:00,35.0,31.0,-100.00,WSW,257,20.0,40.0,84,-99.99,,,-99.99,,2013-01-10 23:02:00,
2013-01-10 15:12:00,35.0,29.0,-100.00,WSW,254,24.0,38.0,78,-99.99,,,-99.99,,2013-01-10 23:12:00,
2013-01-10 15:22:00,34.0,28.0,-100.00,WSW,251,22.0,37.0,77,-99.99,,,-99.99,,2013-01-10 23:22:00,
2013-01-10 15:32:00,35.0,30.0,-100.00,WSW,255,20.0,31.0,81,-99.99,,,-99.99,,2013-01-10 23:32:00,
2013-01-10 15:42:00,34.0,28.0,-100.00,WSW,253,23.0,40.0,80,-99.99,,,-99.99,,2013-01-10 23:42:00,
2013-01-10 15:52:00,34.0,29.0,-100.00,West,266,19.0,29.0,82,-99.99,,,-99.99,,2013-01-10 23:52:00,
2013-01-10 16:02:00,34.0,29.0,-100.00,WSW,258,22.0,34.0,83,-99.99,,,-99.99,,2013-01-11 00:02:00,
2013-01-10 16:12:00,34.0,28.0,-100.00,West,260,21.0,33.0,80,-99.99,,,-99.99,,2013-01-11 00:12:00,
2013-01-10 16:22:00,34.0,28.0,-100.00,WSW,255,22.0,36.0,78,-99.99,,,-99.99,,2013-01-11 00:22:00,
2013-01-10 16:42:00,34.0,30.0,-100.00,West,262,17.0,28.0,84,-99.99,,,-99.99,,2013-01-11 00:42:00,
2013-01-10 16:52:00,34.0,30.0,-100.00,WSW,254,21.0,34.0,85,-99.99,,,-99.99,,2013-01-11 00:52:00,
2013-01-10 17:02:00,34.0,30.0,-100.00,WSW,254,21.0,34.0,85,-99.99,,,-99.99,,2013-01-11 01:02:00,
2013-01-10 17:12:00,33.0,30.0,-100.00,WSW,256,19.0,36.0,89,-99.99,,,-99.99,,2013-01-11 01:12:00,
2013-01-10 17:22:00,33.0,30.0,-100.00,WSW,257,19.0,30.0,88,-99.99,,,-99.99,,2013-01-11 01:22:00,
2013-01-10 17:33:00,33.0,29.0,-100.00,West,273,19.0,36.0,86,-99.99,,,-99.99,,2013-01-11 01:33:00,
2013-01-10 17:42:00,33.0,30.0,-100.00,West,273,20.0,37.0,87,-99.99,,,-99.99,,2013-01-11 01:42:00,
2013-01-10 17:52:00,33.0,30.0,-100.00,West,269,17.0,33.0,88,-99.99,,,-99.99,,2013-01-11 01:52:00,
2013-01-10 18:02:00,32.0,29.0,-100.00,West,260,17.0,31.0,90,-99.99,,,-99.99,,2013-01-11 02:02:00,
2013-01-10 18:12:00,32.0,30.0,-100.00,West,259,18.0,30.0,93,-99.99,,,-99.99,,2013-01-11 02:12:00,
2013-01-10 18:22:00,32.0,30.0,-100.00,WSW,258,16.0,26.0,94,-99.99,,,-99.99,,2013-01-11 02:22:00,
2013-01-10 18:32:00,32.0,30.0,-100.00,West,265,18.0,29.0,93,-99.99,,,-99.99,,2013-01-11 02:32:00,
2013-01-10 18:42:00,32.0,31.0,-100.00,WSW,256,17.0,28.0,95,-99.99,,,-99.99,,2013-01-11 02:42:00,
2013-01-10 18:53:00,32.0,31.0,-100.00,WSW,252,19.0,31.0,95,-99.99,,,-99.99,,2013-01-11 02:53:00,
2013-01-10 19:02:00,32.0,31.0,-100.00,WSW,256,20.0,33.0,95,-99.99,,,-99.99,,2013-01-11 03:02:00,
2013-01-10 19:12:00,32.0,31.0,-100.00,WSW,257,19.0,29.0,96,-99.99,,,-99.99,,2013-01-11 03:12:00,
2013-01-10 19:22:00,32.0,31.0,-100.00,WSW,255,19.0,32.0,96,-99.99,,,-99.99,,2013-01-11 03:22:00,
2013-01-10 19:33:00,32.0,31.0,-100.00,West,265,19.0,34.0,96,-99.99,,,-99.99,,2013-01-11 03:33:00,
2013-01-10 19:42:00,32.0,31.0,-100.00,West,265,19.0,34.0,96,-99.99,,,-99.99,,2013-01-11 03:42:00,
2013-01-10 19:52:00,32.0,31.0,-100.00,WSW,258,17.0,27.0,96,-99.99,,,-99.99,,2013-01-11 03:52:00,
2013-01-10 20:02:00,32.0,31.0,-100.00,WSW,258,17.0,27.0,96,-99.99,,,-99.99,,2013-01-11 04:02:00,
2013-01-10 20:12:00,32.0,31.0,-100.00,West,264,19.0,33.0,95,-99.99,,,-99.99,,2013-01-11 04:12:00,
2013-01-10 20:22:00,32.0,30.0,-100.00,West,268,19.0,29.0,92,-99.99,,,-99.99,,2013-01-11 04:22:00,
2013-01-10 20:32:00,33.0,31.0,-100.00,West,280,20.0,32.0,93,-99.99,,,-99.99,,2013-01-11 04:32:00,
2013-01-10 20:42:00,33.0,31.0,-100.00,West,270,19.0,33.0,93,-99.99,,,-99.99,,2013-01-11 04:42:00,
2013-01-10 20:52:00,33.0,31.0,-100.00,West,276,21.0,35.0,93,-99.99,,,-99.99,,2013-01-11 04:52:00,
2013-01-10 21:03:00,32.0,30.0,-100.00,West,271,19.0,30.0,93,-99.99,,,-99.99,,2013-01-11 05:03:00,
2013-01-10 21:12:00,33.0,31.0,-100.00,West,265,20.0,33.0,92,-99.99,,,-99.99,,2013-01-11 05:12:00,
2013-01-10 21:22:00,33.0,31.0,-100.00,West,269,22.0,39.0,92,-99.99,,,-99.99,,2013-01-11 05:22:00,
2013-01-10 21:33:00,33.0,31.0,-100.00,West,275,23.0,34.0,93,-99.99,,,-99.99,,2013-01-11 05:33:00,
2013-01-10 21:42:00,33.0,31.0,-100.00,West,275,23.0,34.0,93,-99.99,,,-99.99,,2013-01-11 05:42:00,
2013-01-10 21:52:00,33.0,31.0,-100.00,West,270,20.0,32.0,93,-99.99,,,-99.99,,2013-01-11 05:52:00,
2013-01-10 22:02:00,33.0,31.0,-100.00,West,272,20.0,33.0,92,-99.99,,,-99.99,,2013-01-11 06:02:00,
2013-01-10 22:12:00,33.0,31.0,-100.00,WNW,283,23.0,35.0,91,-99.99,,,-99.99,,2013-01-11 06:12:00,
2013-01-10 22:22:00,33.0,30.0,-100.00,West,277,20.0,30.0,89,-99.99,,,-99.99,,2013-01-11 06:22:00,
2013-01-10 22:32:00,33.0,31.0,-100.00,WNW,285,23.0,40.0,91,-99.99,,,-99.99,,2013-01-11 06:32:00,
2013-01-10 22:42:00,32.0,29.0,-100.00,WNW,284,23.0,34.0,87,-99.99,,,-99.99,,2013-01-11 06:42:00,
2013-01-10 22:52:00,32.0,27.0,-100.00,West,279,22.0,33.0,80,-99.99,,,-99.99,,2013-01-11 06:52:00,
2013-01-10 23:02:00,32.0,26.0,-100.00,West,277,18.0,26.0,79,-99.99,,,-99.99,,2013-01-11 07:02:00,
2013-01-10 23:11:00,32.0,27.0,-100.00,WNW,285,18.0,25.0,80,-99.99,,,-99.99,,2013-01-11 07:11:00,
2013-01-10 23:22:00,32.0,27.0,-100.00,West,280,16.0,25.0,81,-99.99,,,-99.99,,2013-01-11 07:22:00,
2013-01-10 23:32:00,32.0,27.0,-100.00,West,280,17.0,26.0,81,-99.99,,,-99.99,,2013-01-11 07:32:00,
2013-01-10 23:42:00,31.0,26.0,-100.00,West,281,16.0,27.0,81,-99.99,,,-99.99,,2013-01-11 07:42:00,
2013-01-10 23:52:00,31.0,25.0,-100.00,West,279,16.0,25.0,79,-99.99,,,-99.99,,2013-01-11 07:52:00,